Terminal Aerodrome Forecast
Issued by NWS Cleveland, OH

Home | Current Version | Previous Version | Text Only | Print | Product List | Glossary Off
Versions: 1 2 3 4 5 6 7 8 9 10 11 12 13 14

000
FTUS41 KCLE 201100
TAFMFD
TAF
KMFD 201125Z 2012/2112 30009KT P6SM OVC035
      TEMPO 2012/2014 OVC025
     FM201600 36007KT P6SM OVC250
     FM202100 35007KT P6SM OVC100
     FM210600 02004KT P6SM -SHRA OVC050
     FM210800 VRB03KT P6SM OVC050=

USA.gov is the U.S. government's official web portal to all federal, state and local government web resources and services.